sensor_id;sensor_type;location;lat;lon;timestamp;P1;durP1;ratioP1;P2;durP2;ratioP2
42868;SDS011;28516;47.276;-1.512;2022-08-04T00:00:16;0.25;;;0.25;;
42868;SDS011;28516;47.276;-1.512;2022-08-04T00:01:30;0.20;;;0.20;;
42868;SDS011;28516;47.276;-1.512;2022-08-04T00:02:44;0.20;;;0.20;;
42868;SDS011;28516;47.276;-1.512;2022-08-04T00:04:03;0.30;;;0.30;;
42868;SDS011;28516;47.276;-1.512;2022-08-04T00:05:09;0.20;;;0.20;;
42868;SDS011;28516;47.276;-1.512;2022-08-04T00:06:18;0.20;;;0.20;;
42868;SDS011;28516;47.276;-1.512;2022-08-04T00:09:29;0.30;;;0.28;;
42868;SDS011;28516;47.276;-1.512;2022-08-04T00:10:31;0.20;;;0.20;;
42868;SDS011;28516;47.276;-1.512;2022-08-04T00:11:34;0.30;;;0.30;;
42868;SDS011;28516;47.276;-1.512;2022-08-04T00:12:36;0.20;;;0.20;;
42868;SDS011;28516;47.276;-1.512;2022-08-04T00:13:42;1.27;;;0.10;;
42868;SDS011;28516;47.276;-1.512;2022-08-04T00:14:48;0.45;;;0.38;;
42868;SDS011;28516;47.276;-1.512;2022-08-04T00:15:50;0.30;;;0.30;;
42868;SDS011;28516;47.276;-1.512;2022-08-04T00:16:51;0.30;;;0.30;;
42868;SDS011;28516;47.276;-1.512;2022-08-04T00:17:54;0.30;;;0.20;;
42868;SDS011;28516;47.276;-1.512;2022-08-04T00:19:00;0.20;;;0.20;;
42868;SDS011;28516;47.276;-1.512;2022-08-04T00:20:02;0.20;;;0.20;;
42868;SDS011;28516;47.276;-1.512;2022-08-04T00:21:05;0.10;;;0.10;;
42868;SDS011;28516;47.276;-1.512;2022-08-04T00:22:08;0.10;;;0.10;;
42868;SDS011;28516;47.276;-1.512;2022-08-04T00:23:08;0.28;;;0.28;;
42868;SDS011;28516;47.276;-1.512;2022-08-04T00:24:10;0.20;;;0.20;;
42868;SDS011;28516;47.276;-1.512;2022-08-04T00:25:12;0.10;;;0.10;;
42868;SDS011;28516;47.276;-1.512;2022-08-04T00:26:13;0.20;;;0.20;;
42868;SDS011;28516;47.276;-1.512;2022-08-04T00:27:15;0.20;;;0.20;;
42868;SDS011;28516;47.276;-1.512;2022-08-04T00:28:16;0.20;;;0.20;;
42868;SDS011;28516;47.276;-1.512;2022-08-04T00:29:16;0.22;;;0.22;;
42868;SDS011;28516;47.276;-1.512;2022-08-04T00:30:17;0.30;;;0.30;;
42868;SDS011;28516;47.276;-1.512;2022-08-04T00:31:18;0.30;;;0.30;;
42868;SDS011;28516;47.276;-1.512;2022-08-04T00:32:19;0.17;;;0.17;;
42868;SDS011;28516;47.276;-1.512;2022-08-04T00:33:19;0.52;;;0.40;;
42868;SDS011;28516;47.276;-1.512;2022-08-04T00:34:21;0.28;;;0.17;;
42868;SDS011;28516;47.276;-1.512;2022-08-04T00:35:23;0.30;;;0.30;;
42868;SDS011;28516;47.276;-1.512;2022-08-04T00:36:24;0.28;;;0.25;;
42868;SDS011;28516;47.276;-1.512;2022-08-04T00:37:26;0.10;;;0.10;;
42868;SDS011;28516;47.276;-1.512;2022-08-04T00:38:27;0.50;;;0.50;;
42868;SDS011;28516;47.276;-1.512;2022-08-04T00:39:28;0.63;;;0.20;;
42868;SDS011;28516;47.276;-1.512;2022-08-04T00:40:31;0.10;;;0.10;;
42868;SDS011;28516;47.276;-1.512;2022-08-04T00:43:42;0.30;;;0.30;;
42868;SDS011;28516;47.276;-1.512;2022-08-04T00:48:42;0.20;;;0.20;;
42868;SDS011;28516;47.276;-1.512;2022-08-04T00:51:05;0.40;;;0.30;;
42868;SDS011;28516;47.276;-1.512;2022-08-04T00:53:23;0.13;;;0.13;;
42868;SDS011;28516;47.276;-1.512;2022-08-04T00:54:33;0.30;;;0.30;;
42868;SDS011;28516;47.276;-1.512;2022-08-04T00:55:53;0.52;;;0.20;;
42868;SDS011;28516;47.276;-1.512;2022-08-04T00:57:22;0.20;;;0.20;;
42868;SDS011;28516;47.276;-1.512;2022-08-04T01:00:00;0.28;;;0.28;;
42868;SDS011;28516;47.276;-1.512;2022-08-04T01:01:03;0.25;;;0.25;;
42868;SDS011;28516;47.276;-1.512;2022-08-04T01:02:16;0.20;;;0.20;;
42868;SDS011;28516;47.276;-1.512;2022-08-04T01:07:06;0.30;;;0.20;;
42868;SDS011;28516;47.276;-1.512;2022-08-04T01:16:20;0.43;;;0.20;;
42868;SDS011;28516;47.276;-1.512;2022-08-04T01:17:23;0.20;;;0.20;;
42868;SDS011;28516;47.276;-1.512;2022-08-04T01:20:59;0.20;;;0.20;;
42868;SDS011;28516;47.276;-1.512;2022-08-04T01:23:49;0.10;;;0.10;;
42868;SDS011;28516;47.276;-1.512;2022-08-04T01:24:37;0.63;;;0.40;;
42868;SDS011;28516;47.276;-1.512;2022-08-04T01:30:02;0.20;;;0.20;;
42868;SDS011;28516;47.276;-1.512;2022-08-04T01:31:10;0.40;;;0.30;;
42868;SDS011;28516;47.276;-1.512;2022-08-04T01:32:18;0.10;;;0.10;;
42868;SDS011;28516;47.276;-1.512;2022-08-04T01:33:19;0.10;;;0.10;;
42868;SDS011;28516;47.276;-1.512;2022-08-04T01:34:22;0.28;;;0.20;;
42868;SDS011;28516;47.276;-1.512;2022-08-04T01:35:23;0.17;;;0.17;;
42868;SDS011;28516;47.276;-1.512;2022-08-04T01:36:25;0.13;;;0.13;;
42868;SDS011;28516;47.276;-1.512;2022-08-04T01:38:33;0.10;;;0.10;;
42868;SDS011;28516;47.276;-1.512;2022-08-04T01:39:34;0.20;;;0.20;;
42868;SDS011;28516;47.276;-1.512;2022-08-04T01:40:41;0.20;;;0.20;;
42868;SDS011;28516;47.276;-1.512;2022-08-04T01:41:43;0.20;;;0.20;;
42868;SDS011;28516;47.276;-1.512;2022-08-04T01:42:44;0.20;;;0.20;;
42868;SDS011;28516;47.276;-1.512;2022-08-04T01:43:45;0.28;;;0.28;;
42868;SDS011;28516;47.276;-1.512;2022-08-04T01:44:47;0.25;;;0.25;;
42868;SDS011;28516;47.276;-1.512;2022-08-04T01:45:48;0.35;;;0.22;;
42868;SDS011;28516;47.276;-1.512;2022-08-04T01:46:49;0.20;;;0.20;;
42868;SDS011;28516;47.276;-1.512;2022-08-04T01:47:52;0.20;;;0.20;;
42868;SDS011;28516;47.276;-1.512;2022-08-04T01:48:53;0.20;;;0.20;;
42868;SDS011;28516;47.276;-1.512;2022-08-04T01:49:57;0.30;;;0.30;;
42868;SDS011;28516;47.276;-1.512;2022-08-04T01:51:05;0.10;;;0.10;;
42868;SDS011;28516;47.276;-1.512;2022-08-04T01:52:06;0.20;;;0.20;;
42868;SDS011;28516;47.276;-1.512;2022-08-04T01:53:07;0.43;;;0.20;;
42868;SDS011;28516;47.276;-1.512;2022-08-04T01:54:08;0.20;;;0.20;;
42868;SDS011;28516;47.276;-1.512;2022-08-04T01:55:10;0.30;;;0.30;;
42868;SDS011;28516;47.276;-1.512;2022-08-04T01:56:11;0.40;;;0.40;;
42868;SDS011;28516;47.276;-1.512;2022-08-04T01:57:12;0.40;;;0.20;;
42868;SDS011;28516;47.276;-1.512;2022-08-04T01:58:17;0.15;;;0.15;;
42868;SDS011;28516;47.276;-1.512;2022-08-04T01:59:19;0.20;;;0.20;;
42868;SDS011;28516;47.276;-1.512;2022-08-04T02:00:21;0.30;;;0.30;;
42868;SDS011;28516;47.276;-1.512;2022-08-04T02:01:22;0.20;;;0.20;;
42868;SDS011;28516;47.276;-1.512;2022-08-04T02:02:22;0.20;;;0.20;;
42868;SDS011;28516;47.276;-1.512;2022-08-04T02:03:23;0.20;;;0.20;;
42868;SDS011;28516;47.276;-1.512;2022-08-04T02:04:24;0.20;;;0.20;;
42868;SDS011;28516;47.276;-1.512;2022-08-04T02:05:25;0.30;;;0.30;;
42868;SDS011;28516;47.276;-1.512;2022-08-04T02:09:03;0.22;;;0.22;;
42868;SDS011;28516;47.276;-1.512;2022-08-04T02:10:07;0.20;;;0.20;;
42868;SDS011;28516;47.276;-1.512;2022-08-04T02:14:22;0.40;;;0.20;;
42868;SDS011;28516;47.276;-1.512;2022-08-04T02:15:51;0.40;;;0.40;;
42868;SDS011;28516;47.276;-1.512;2022-08-04T02:16:55;0.20;;;0.20;;
42868;SDS011;28516;47.276;-1.512;2022-08-04T02:18:03;0.20;;;0.20;;
42868;SDS011;28516;47.276;-1.512;2022-08-04T02:19:08;0.30;;;0.20;;
42868;SDS011;28516;47.276;-1.512;2022-08-04T02:20:56;0.30;;;0.30;;
42868;SDS011;28516;47.276;-1.512;2022-08-04T02:21:37;0.20;;;0.20;;
42868;SDS011;28516;47.276;-1.512;2022-08-04T02:22:43;0.20;;;0.20;;
42868;SDS011;28516;47.276;-1.512;2022-08-04T02:23:49;0.22;;;0.22;;
42868;SDS011;28516;47.276;-1.512;2022-08-04T02:24:54;0.28;;;0.28;;
42868;SDS011;28516;47.276;-1.512;2022-08-04T02:25:58;0.20;;;0.20;;
42868;SDS011;28516;47.276;-1.512;2022-08-04T02:27:00;0.20;;;0.20;;
42868;SDS011;28516;47.276;-1.512;2022-08-04T02:30:12;0.20;;;0.20;;
42868;SDS011;28516;47.276;-1.512;2022-08-04T02:32:19;0.20;;;0.20;;
42868;SDS011;28516;47.276;-1.512;2022-08-04T02:33:23;0.17;;;0.17;;
42868;SDS011;28516;47.276;-1.512;2022-08-04T02:34:24;0.15;;;0.15;;
42868;SDS011;28516;47.276;-1.512;2022-08-04T02:35:27;0.20;;;0.20;;
42868;SDS011;28516;47.276;-1.512;2022-08-04T02:36:39;0.20;;;0.20;;
42868;SDS011;28516;47.276;-1.512;2022-08-04T02:37:46;0.30;;;0.30;;
42868;SDS011;28516;47.276;-1.512;2022-08-04T02:39:54;0.25;;;0.25;;
42868;SDS011;28516;47.276;-1.512;2022-08-04T02:40:58;0.40;;;0.28;;
42868;SDS011;28516;47.276;-1.512;2022-08-04T02:41:59;0.45;;;0.20;;
42868;SDS011;28516;47.276;-1.512;2022-08-04T02:43:01;0.15;;;0.15;;
42868;SDS011;28516;47.276;-1.512;2022-08-04T02:44:04;1.58;;;0.20;;
42868;SDS011;28516;47.276;-1.512;2022-08-04T02:45:05;0.20;;;0.20;;
42868;SDS011;28516;47.276;-1.512;2022-08-04T02:46:06;0.10;;;0.10;;
42868;SDS011;28516;47.276;-1.512;2022-08-04T02:47:08;0.20;;;0.20;;
42868;SDS011;28516;47.276;-1.512;2022-08-04T02:48:09;0.20;;;0.20;;
42868;SDS011;28516;47.276;-1.512;2022-08-04T02:49:09;0.22;;;0.22;;
42868;SDS011;28516;47.276;-1.512;2022-08-04T02:50:10;0.17;;;0.17;;
42868;SDS011;28516;47.276;-1.512;2022-08-04T02:51:12;0.20;;;0.20;;
42868;SDS011;28516;47.276;-1.512;2022-08-04T02:52:13;0.15;;;0.15;;
42868;SDS011;28516;47.276;-1.512;2022-08-04T02:53:14;0.70;;;0.25;;
42868;SDS011;28516;47.276;-1.512;2022-08-04T02:54:15;0.20;;;0.20;;
42868;SDS011;28516;47.276;-1.512;2022-08-04T02:55:16;0.30;;;0.30;;
42868;SDS011;28516;47.276;-1.512;2022-08-04T02:56:18;1.33;;;0.20;;
42868;SDS011;28516;47.276;-1.512;2022-08-04T02:57:20;0.20;;;0.20;;
42868;SDS011;28516;47.276;-1.512;2022-08-04T02:58:22;0.17;;;0.17;;
42868;SDS011;28516;47.276;-1.512;2022-08-04T02:59:26;0.15;;;0.15;;
42868;SDS011;28516;47.276;-1.512;2022-08-04T03:00:27;0.17;;;0.17;;
42868;SDS011;28516;47.276;-1.512;2022-08-04T03:01:28;0.10;;;0.10;;
42868;SDS011;28516;47.276;-1.512;2022-08-04T03:02:40;0.10;;;0.10;;
42868;SDS011;28516;47.276;-1.512;2022-08-04T03:05:06;0.38;;;0.30;;
42868;SDS011;28516;47.276;-1.512;2022-08-04T03:16:34;0.20;;;0.20;;
42868;SDS011;28516;47.276;-1.512;2022-08-04T03:22:35;0.30;;;0.30;;
42868;SDS011;28516;47.276;-1.512;2022-08-04T03:28:51;0.13;;;0.13;;
42868;SDS011;28516;47.276;-1.512;2022-08-04T03:30:05;0.20;;;0.20;;
42868;SDS011;28516;47.276;-1.512;2022-08-04T03:33:38;0.20;;;0.20;;
42868;SDS011;28516;47.276;-1.512;2022-08-04T03:41:26;0.15;;;0.15;;
42868;SDS011;28516;47.276;-1.512;2022-08-04T03:44:58;0.10;;;0.10;;
42868;SDS011;28516;47.276;-1.512;2022-08-04T03:47:23;0.17;;;0.17;;
42868;SDS011;28516;47.276;-1.512;2022-08-04T03:50:44;0.10;;;0.10;;
42868;SDS011;28516;47.276;-1.512;2022-08-04T03:53:41;0.20;;;0.20;;
42868;SDS011;28516;47.276;-1.512;2022-08-04T03:56:11;0.20;;;0.20;;
42868;SDS011;28516;47.276;-1.512;2022-08-04T04:04:59;0.13;;;0.13;;
42868;SDS011;28516;47.276;-1.512;2022-08-04T04:07:13;0.10;;;0.10;;
42868;SDS011;28516;47.276;-1.512;2022-08-04T04:16:04;0.22;;;0.20;;
42868;SDS011;28516;47.276;-1.512;2022-08-04T04:30:26;0.20;;;0.20;;
42868;SDS011;28516;47.276;-1.512;2022-08-04T04:31:42;0.20;;;0.20;;
42868;SDS011;28516;47.276;-1.512;2022-08-04T04:37:20;0.13;;;0.13;;
42868;SDS011;28516;47.276;-1.512;2022-08-04T04:38:30;0.10;;;0.10;;
42868;SDS011;28516;47.276;-1.512;2022-08-04T04:40:47;0.20;;;0.20;;
42868;SDS011;28516;47.276;-1.512;2022-08-04T04:46:26;0.20;;;0.20;;
42868;SDS011;28516;47.276;-1.512;2022-08-04T04:49:48;0.20;;;0.20;;
42868;SDS011;28516;47.276;-1.512;2022-08-04T04:52:29;0.13;;;0.13;;
42868;SDS011;28516;47.276;-1.512;2022-08-04T04:54:38;0.20;;;0.20;;
42868;SDS011;28516;47.276;-1.512;2022-08-04T04:55:44;0.10;;;0.10;;
42868;SDS011;28516;47.276;-1.512;2022-08-04T04:57:02;0.10;;;0.10;;
42868;SDS011;28516;47.276;-1.512;2022-08-04T04:58:04;0.10;;;0.10;;
42868;SDS011;28516;47.276;-1.512;2022-08-04T04:59:08;0.22;;;0.20;;
42868;SDS011;28516;47.276;-1.512;2022-08-04T05:00:10;0.20;;;0.20;;
42868;SDS011;28516;47.276;-1.512;2022-08-04T05:05:59;0.20;;;0.20;;
42868;SDS011;28516;47.276;-1.512;2022-08-04T05:11:07;0.20;;;0.10;;
42868;SDS011;28516;47.276;-1.512;2022-08-04T05:12:16;0.10;;;0.10;;
42868;SDS011;28516;47.276;-1.512;2022-08-04T05:14:32;0.10;;;0.10;;
42868;SDS011;28516;47.276;-1.512;2022-08-04T05:15:34;0.10;;;0.10;;
42868;SDS011;28516;47.276;-1.512;2022-08-04T05:16:54;0.10;;;0.10;;
42868;SDS011;28516;47.276;-1.512;2022-08-04T05:17:55;0.20;;;0.20;;
42868;SDS011;28516;47.276;-1.512;2022-08-04T05:20:35;0.20;;;0.20;;
42868;SDS011;28516;47.276;-1.512;2022-08-04T05:23:01;0.10;;;0.10;;
42868;SDS011;28516;47.276;-1.512;2022-08-04T05:24:01;0.10;;;0.10;;
42868;SDS011;28516;47.276;-1.512;2022-08-04T05:25:04;0.10;;;0.10;;
42868;SDS011;28516;47.276;-1.512;2022-08-04T05:26:07;0.13;;;0.13;;
42868;SDS011;28516;47.276;-1.512;2022-08-04T05:27:25;0.10;;;0.10;;
42868;SDS011;28516;47.276;-1.512;2022-08-04T05:28:37;0.10;;;0.10;;
42868;SDS011;28516;47.276;-1.512;2022-08-04T05:29:47;0.17;;;0.17;;
42868;SDS011;28516;47.276;-1.512;2022-08-04T05:30:50;0.10;;;0.10;;
42868;SDS011;28516;47.276;-1.512;2022-08-04T05:31:51;0.15;;;0.15;;
42868;SDS011;28516;47.276;-1.512;2022-08-04T05:33:03;0.10;;;0.10;;
42868;SDS011;28516;47.276;-1.512;2022-08-04T05:34:28;0.10;;;0.10;;
42868;SDS011;28516;47.276;-1.512;2022-08-04T05:35:28;0.20;;;0.20;;
42868;SDS011;28516;47.276;-1.512;2022-08-04T05:36:34;0.10;;;0.10;;
42868;SDS011;28516;47.276;-1.512;2022-08-04T05:37:36;0.10;;;0.10;;
42868;SDS011;28516;47.276;-1.512;2022-08-04T05:38:38;0.10;;;0.10;;
42868;SDS011;28516;47.276;-1.512;2022-08-04T05:39:44;0.10;;;0.10;;
42868;SDS011;28516;47.276;-1.512;2022-08-04T05:40:45;0.10;;;0.10;;
42868;SDS011;28516;47.276;-1.512;2022-08-04T05:41:47;0.10;;;0.10;;
42868;SDS011;28516;47.276;-1.512;2022-08-04T05:42:48;0.10;;;0.10;;
42868;SDS011;28516;47.276;-1.512;2022-08-04T05:43:49;0.10;;;0.10;;
42868;SDS011;28516;47.276;-1.512;2022-08-04T05:44:50;0.20;;;0.20;;
42868;SDS011;28516;47.276;-1.512;2022-08-04T05:45:51;0.55;;;0.10;;
42868;SDS011;28516;47.276;-1.512;2022-08-04T05:46:54;0.20;;;0.20;;
42868;SDS011;28516;47.276;-1.512;2022-08-04T05:47:54;0.10;;;0.10;;
42868;SDS011;28516;47.276;-1.512;2022-08-04T05:48:55;0.10;;;0.10;;
42868;SDS011;28516;47.276;-1.512;2022-08-04T05:49:56;0.10;;;0.10;;
42868;SDS011;28516;47.276;-1.512;2022-08-04T05:50:57;0.10;;;0.10;;
42868;SDS011;28516;47.276;-1.512;2022-08-04T05:52:01;0.10;;;0.10;;
42868;SDS011;28516;47.276;-1.512;2022-08-04T05:53:02;0.10;;;0.10;;
42868;SDS011;28516;47.276;-1.512;2022-08-04T05:54:03;0.20;;;0.20;;
42868;SDS011;28516;47.276;-1.512;2022-08-04T05:55:05;0.20;;;0.20;;
42868;SDS011;28516;47.276;-1.512;2022-08-04T05:56:06;0.20;;;0.20;;
42868;SDS011;28516;47.276;-1.512;2022-08-04T05:57:07;0.40;;;0.20;;
42868;SDS011;28516;47.276;-1.512;2022-08-04T05:58:09;0.20;;;0.20;;
42868;SDS011;28516;47.276;-1.512;2022-08-04T05:59:10;0.10;;;0.10;;
42868;SDS011;28516;47.276;-1.512;2022-08-04T06:00:12;0.10;;;0.10;;
42868;SDS011;28516;47.276;-1.512;2022-08-04T06:01:12;0.10;;;0.10;;
42868;SDS011;28516;47.276;-1.512;2022-08-04T06:02:14;0.10;;;0.10;;
42868;SDS011;28516;47.276;-1.512;2022-08-04T06:03:17;0.10;;;0.10;;
42868;SDS011;28516;47.276;-1.512;2022-08-04T06:04:18;0.10;;;0.10;;
42868;SDS011;28516;47.276;-1.512;2022-08-04T06:05:20;0.20;;;0.20;;
42868;SDS011;28516;47.276;-1.512;2022-08-04T06:06:21;0.20;;;0.20;;
42868;SDS011;28516;47.276;-1.512;2022-08-04T06:07:22;0.10;;;0.10;;
42868;SDS011;28516;47.276;-1.512;2022-08-04T06:08:23;0.47;;;0.10;;
42868;SDS011;28516;47.276;-1.512;2022-08-04T06:09:24;0.10;;;0.10;;
42868;SDS011;28516;47.276;-1.512;2022-08-04T06:10:24;0.10;;;0.10;;
42868;SDS011;28516;47.276;-1.512;2022-08-04T06:11:26;1.45;;;0.10;;
42868;SDS011;28516;47.276;-1.512;2022-08-04T06:12:31;0.13;;;0.13;;
42868;SDS011;28516;47.276;-1.512;2022-08-04T06:13:42;0.10;;;0.10;;
42868;SDS011;28516;47.276;-1.512;2022-08-04T06:14:43;0.10;;;0.10;;
42868;SDS011;28516;47.276;-1.512;2022-08-04T06:15:44;0.10;;;0.10;;
42868;SDS011;28516;47.276;-1.512;2022-08-04T06:16:47;0.10;;;0.10;;
42868;SDS011;28516;47.276;-1.512;2022-08-04T06:17:49;0.10;;;0.10;;
42868;SDS011;28516;47.276;-1.512;2022-08-04T06:18:51;0.10;;;0.10;;
42868;SDS011;28516;47.276;-1.512;2022-08-04T06:19:52;0.10;;;0.10;;
42868;SDS011;28516;47.276;-1.512;2022-08-04T06:20:54;0.10;;;0.10;;
42868;SDS011;28516;47.276;-1.512;2022-08-04T06:21:57;0.40;;;0.10;;
42868;SDS011;28516;47.276;-1.512;2022-08-04T06:22:59;0.10;;;0.10;;
42868;SDS011;28516;47.276;-1.512;2022-08-04T06:24:00;0.10;;;0.10;;
42868;SDS011;28516;47.276;-1.512;2022-08-04T06:25:02;0.10;;;0.10;;
42868;SDS011;28516;47.276;-1.512;2022-08-04T06:26:04;0.10;;;0.10;;
42868;SDS011;28516;47.276;-1.512;2022-08-04T06:27:06;0.10;;;0.10;;
42868;SDS011;28516;47.276;-1.512;2022-08-04T06:28:07;0.10;;;0.10;;
42868;SDS011;28516;47.276;-1.512;2022-08-04T06:29:09;0.10;;;0.10;;
42868;SDS011;28516;47.276;-1.512;2022-08-04T06:30:16;0.10;;;0.10;;
42868;SDS011;28516;47.276;-1.512;2022-08-04T06:31:19;0.10;;;0.10;;
42868;SDS011;28516;47.276;-1.512;2022-08-04T06:32:42;0.10;;;0.10;;
42868;SDS011;28516;47.276;-1.512;2022-08-04T06:33:48;0.10;;;0.10;;
42868;SDS011;28516;47.276;-1.512;2022-08-04T06:34:53;0.10;;;0.10;;
42868;SDS011;28516;47.276;-1.512;2022-08-04T06:35:54;0.10;;;0.10;;
42868;SDS011;28516;47.276;-1.512;2022-08-04T06:36:56;0.10;;;0.10;;
42868;SDS011;28516;47.276;-1.512;2022-08-04T06:37:57;0.10;;;0.10;;
42868;SDS011;28516;47.276;-1.512;2022-08-04T06:38:58;0.25;;;0.10;;
42868;SDS011;28516;47.276;-1.512;2022-08-04T06:40:00;0.10;;;0.10;;
42868;SDS011;28516;47.276;-1.512;2022-08-04T06:41:02;0.15;;;0.15;;
42868;SDS011;28516;47.276;-1.512;2022-08-04T06:42:04;0.13;;;0.10;;
42868;SDS011;28516;47.276;-1.512;2022-08-04T06:43:05;0.20;;;0.20;;
42868;SDS011;28516;47.276;-1.512;2022-08-04T06:44:07;0.17;;;0.17;;
42868;SDS011;28516;47.276;-1.512;2022-08-04T06:45:10;0.10;;;0.10;;
42868;SDS011;28516;47.276;-1.512;2022-08-04T06:46:11;0.20;;;0.20;;
42868;SDS011;28516;47.276;-1.512;2022-08-04T06:47:12;0.10;;;0.10;;
42868;SDS011;28516;47.276;-1.512;2022-08-04T06:48:13;0.20;;;0.20;;
42868;SDS011;28516;47.276;-1.512;2022-08-04T06:49:14;0.13;;;0.13;;
42868;SDS011;28516;47.276;-1.512;2022-08-04T06:50:17;2.75;;;0.10;;
42868;SDS011;28516;47.276;-1.512;2022-08-04T06:51:18;0.28;;;0.28;;
42868;SDS011;28516;47.276;-1.512;2022-08-04T06:52:20;0.10;;;0.10;;
42868;SDS011;28516;47.276;-1.512;2022-08-04T06:53:21;2.03;;;0.20;;
42868;SDS011;28516;47.276;-1.512;2022-08-04T06:54:22;1.17;;;0.25;;
42868;SDS011;28516;47.276;-1.512;2022-08-04T06:55:22;0.10;;;0.10;;
42868;SDS011;28516;47.276;-1.512;2022-08-04T06:56:24;0.70;;;0.20;;
42868;SDS011;28516;47.276;-1.512;2022-08-04T06:57:26;0.20;;;0.10;;
42868;SDS011;28516;47.276;-1.512;2022-08-04T06:58:27;1.17;;;0.40;;
42868;SDS011;28516;47.276;-1.512;2022-08-04T06:59:30;0.85;;;0.22;;
42868;SDS011;28516;47.276;-1.512;2022-08-04T07:00:30;1.23;;;0.32;;
42868;SDS011;28516;47.276;-1.512;2022-08-04T07:01:31;0.20;;;0.20;;
42868;SDS011;28516;47.276;-1.512;2022-08-04T07:02:38;0.20;;;0.20;;
42868;SDS011;28516;47.276;-1.512;2022-08-04T07:03:39;0.30;;;0.30;;
42868;SDS011;28516;47.276;-1.512;2022-08-04T07:04:41;0.30;;;0.30;;
42868;SDS011;28516;47.276;-1.512;2022-08-04T07:05:42;0.40;;;0.20;;
42868;SDS011;28516;47.276;-1.512;2022-08-04T07:06:45;0.35;;;0.20;;
42868;SDS011;28516;47.276;-1.512;2022-08-04T07:07:46;1.48;;;0.30;;
42868;SDS011;28516;47.276;-1.512;2022-08-04T07:08:47;0.38;;;0.25;;
42868;SDS011;28516;47.276;-1.512;2022-08-04T07:09:48;0.50;;;0.30;;
42868;SDS011;28516;47.276;-1.512;2022-08-04T07:10:48;1.33;;;0.22;;
42868;SDS011;28516;47.276;-1.512;2022-08-04T07:11:49;0.30;;;0.30;;
42868;SDS011;28516;47.276;-1.512;2022-08-04T07:12:50;0.70;;;0.30;;
42868;SDS011;28516;47.276;-1.512;2022-08-04T07:13:51;0.30;;;0.30;;
42868;SDS011;28516;47.276;-1.512;2022-08-04T07:14:53;0.30;;;0.30;;
42868;SDS011;28516;47.276;-1.512;2022-08-04T07:15:54;0.75;;;0.20;;
42868;SDS011;28516;47.276;-1.512;2022-08-04T07:16:55;2.28;;;0.30;;
42868;SDS011;28516;47.276;-1.512;2022-08-04T07:17:56;1.80;;;0.30;;
42868;SDS011;28516;47.276;-1.512;2022-08-04T07:19:01;0.40;;;0.30;;
42868;SDS011;28516;47.276;-1.512;2022-08-04T07:20:03;0.55;;;0.32;;
42868;SDS011;28516;47.276;-1.512;2022-08-04T07:21:04;0.22;;;0.22;;
42868;SDS011;28516;47.276;-1.512;2022-08-04T07:22:06;0.22;;;0.22;;
42868;SDS011;28516;47.276;-1.512;2022-08-04T07:23:06;1.58;;;0.38;;
42868;SDS011;28516;47.276;-1.512;2022-08-04T07:24:07;0.55;;;0.40;;
42868;SDS011;28516;47.276;-1.512;2022-08-04T07:25:08;1.95;;;0.40;;
42868;SDS011;28516;47.276;-1.512;2022-08-04T07:26:09;0.40;;;0.40;;
42868;SDS011;28516;47.276;-1.512;2022-08-04T07:27:10;0.38;;;0.35;;
42868;SDS011;28516;47.276;-1.512;2022-08-04T07:28:11;0.45;;;0.30;;
42868;SDS011;28516;47.276;-1.512;2022-08-04T07:29:12;0.40;;;0.38;;
42868;SDS011;28516;47.276;-1.512;2022-08-04T07:30:13;0.50;;;0.45;;
42868;SDS011;28516;47.276;-1.512;2022-08-04T07:31:15;1.25;;;0.40;;
42868;SDS011;28516;47.276;-1.512;2022-08-04T07:32:20;0.50;;;0.50;;
42868;SDS011;28516;47.276;-1.512;2022-08-04T07:33:22;1.05;;;0.80;;
42868;SDS011;28516;47.276;-1.512;2022-08-04T07:34:23;0.70;;;0.50;;
42868;SDS011;28516;47.276;-1.512;2022-08-04T07:35:24;3.22;;;0.57;;
42868;SDS011;28516;47.276;-1.512;2022-08-04T07:36:25;1.08;;;0.47;;
42868;SDS011;28516;47.276;-1.512;2022-08-04T07:37:25;0.70;;;0.50;;
42868;SDS011;28516;47.276;-1.512;2022-08-04T07:38:26;1.08;;;0.57;;
42868;SDS011;28516;47.276;-1.512;2022-08-04T07:39:28;1.50;;;0.50;;
42868;SDS011;28516;47.276;-1.512;2022-08-04T07:40:30;1.13;;;0.50;;
42868;SDS011;28516;47.276;-1.512;2022-08-04T07:41:31;0.93;;;0.60;;
42868;SDS011;28516;47.276;-1.512;2022-08-04T07:42:32;1.05;;;0.63;;
42868;SDS011;28516;47.276;-1.512;2022-08-04T07:43:35;1.25;;;0.55;;
42868;SDS011;28516;47.276;-1.512;2022-08-04T07:44:36;0.98;;;0.80;;
42868;SDS011;28516;47.276;-1.512;2022-08-04T07:45:36;0.60;;;0.60;;
42868;SDS011;28516;47.276;-1.512;2022-08-04T07:46:37;0.60;;;0.45;;
42868;SDS011;28516;47.276;-1.512;2022-08-04T07:47:38;0.82;;;0.70;;
42868;SDS011;28516;47.276;-1.512;2022-08-04T07:48:41;1.63;;;0.50;;
42868;SDS011;28516;47.276;-1.512;2022-08-04T07:49:42;0.65;;;0.52;;
42868;SDS011;28516;47.276;-1.512;2022-08-04T07:50:44;0.68;;;0.60;;
42868;SDS011;28516;47.276;-1.512;2022-08-04T07:51:46;1.00;;;0.50;;
42868;SDS011;28516;47.276;-1.512;2022-08-04T07:52:47;0.82;;;0.60;;
42868;SDS011;28516;47.276;-1.512;2022-08-04T07:53:47;1.00;;;0.80;;
42868;SDS011;28516;47.276;-1.512;2022-08-04T07:54:49;0.60;;;0.60;;
42868;SDS011;28516;47.276;-1.512;2022-08-04T07:55:50;0.70;;;0.60;;
42868;SDS011;28516;47.276;-1.512;2022-08-04T07:56:51;1.92;;;0.95;;
42868;SDS011;28516;47.276;-1.512;2022-08-04T07:57:52;1.05;;;0.63;;
42868;SDS011;28516;47.276;-1.512;2022-08-04T07:58:53;1.02;;;0.70;;
42868;SDS011;28516;47.276;-1.512;2022-08-04T07:59:54;1.50;;;0.77;;
42868;SDS011;28516;47.276;-1.512;2022-08-04T08:00:54;0.95;;;0.60;;
42868;SDS011;28516;47.276;-1.512;2022-08-04T08:01:57;0.70;;;0.60;;
42868;SDS011;28516;47.276;-1.512;2022-08-04T08:02:58;1.90;;;0.70;;
42868;SDS011;28516;47.276;-1.512;2022-08-04T08:03:59;1.38;;;0.70;;
42868;SDS011;28516;47.276;-1.512;2022-08-04T08:05:00;2.72;;;0.93;;
42868;SDS011;28516;47.276;-1.512;2022-08-04T08:06:02;0.60;;;0.60;;
42868;SDS011;28516;47.276;-1.512;2022-08-04T08:07:03;1.20;;;0.82;;
42868;SDS011;28516;47.276;-1.512;2022-08-04T08:08:04;0.82;;;0.70;;
42868;SDS011;28516;47.276;-1.512;2022-08-04T08:09:15;1.13;;;0.60;;
42868;SDS011;28516;47.276;-1.512;2022-08-04T08:10:16;2.25;;;0.75;;
42868;SDS011;28516;47.276;-1.512;2022-08-04T08:11:16;0.80;;;0.80;;
42868;SDS011;28516;47.276;-1.512;2022-08-04T08:12:17;1.98;;;0.70;;
42868;SDS011;28516;47.276;-1.512;2022-08-04T08:13:19;2.20;;;0.80;;
42868;SDS011;28516;47.276;-1.512;2022-08-04T08:14:21;0.55;;;0.55;;
42868;SDS011;28516;47.276;-1.512;2022-08-04T08:15:22;0.70;;;0.50;;
42868;SDS011;28516;47.276;-1.512;2022-08-04T08:16:22;0.95;;;0.80;;
42868;SDS011;28516;47.276;-1.512;2022-08-04T08:17:23;1.73;;;0.65;;
42868;SDS011;28516;47.276;-1.512;2022-08-04T08:18:24;1.00;;;0.60;;
42868;SDS011;28516;47.276;-1.512;2022-08-04T08:19:24;0.82;;;0.60;;
42868;SDS011;28516;47.276;-1.512;2022-08-04T08:20:25;0.52;;;0.50;;
42868;SDS011;28516;47.276;-1.512;2022-08-04T08:21:26;2.65;;;0.75;;
42868;SDS011;28516;47.276;-1.512;2022-08-04T08:22:27;0.70;;;0.70;;
42868;SDS011;28516;47.276;-1.512;2022-08-04T08:23:29;1.15;;;0.80;;
42868;SDS011;28516;47.276;-1.512;2022-08-04T08:24:30;1.00;;;0.70;;
42868;SDS011;28516;47.276;-1.512;2022-08-04T08:25:31;1.05;;;0.70;;
42868;SDS011;28516;47.276;-1.512;2022-08-04T08:26:32;1.83;;;0.80;;
42868;SDS011;28516;47.276;-1.512;2022-08-04T08:27:35;1.17;;;0.60;;
42868;SDS011;28516;47.276;-1.512;2022-08-04T08:28:36;0.80;;;0.60;;
42868;SDS011;28516;47.276;-1.512;2022-08-04T08:29:37;0.60;;;0.60;;
42868;SDS011;28516;47.276;-1.512;2022-08-04T08:30:38;1.25;;;1.10;;
42868;SDS011;28516;47.276;-1.512;2022-08-04T08:31:39;1.95;;;1.02;;
42868;SDS011;28516;47.276;-1.512;2022-08-04T08:32:39;1.48;;;0.93;;
42868;SDS011;28516;47.276;-1.512;2022-08-04T08:33:40;2.15;;;0.90;;
42868;SDS011;28516;47.276;-1.512;2022-08-04T08:34:41;2.47;;;0.88;;
42868;SDS011;28516;47.276;-1.512;2022-08-04T08:36:49;1.33;;;0.70;;
42868;SDS011;28516;47.276;-1.512;2022-08-04T08:37:55;1.92;;;0.80;;